Time;durP1;ratioP1;P1;durP2;ratioP2;P2;SDS_P1;SDS_P2;PMS_P1;PMS_P2;Temp;Humidity;BMP_temperature;BMP_pressure;BME280_temperature;BME280_humidity;BME280_pressure;Samples;Min_cycle;Max_cycle;Signal;HPM_P1;HPM_P2
2023/02/15 00:02:05;;;;;;;24.13;10.10;;;5.60;99.90;;;;;;5095984;28;20450;-64
2023/02/15 00:04:49;;;;;;;22.33;11.57;;;5.60;99.90;;;;;;5097546;28;20437;-63
2023/02/15 00:07:18;;;;;;;23.73;10.97;;;5.60;99.90;;;;;;5096806;28;20470;-63
2023/02/15 00:09:46;;;;;;;24.73;13.10;;;5.50;99.90;;;;;;5096502;28;20430;-64
2023/02/15 00:12:16;;;;;;;32.33;13.47;;;5.50;99.90;;;;;;5096085;28;20557;-63
2023/02/15 00:14:43;;;;;;;24.80;11.90;;;5.60;99.90;;;;;;5096528;28;20433;-64
2023/02/15 00:17:09;;;;;;;24.33;13.27;;;5.40;99.90;;;;;;5096402;28;20434;-63
2023/02/15 00:19:36;;;;;;;20.33;10.50;;;5.50;99.90;;;;;;5096154;28;20422;-63
2023/02/15 00:22:03;;;;;;;24.63;13.30;;;5.40;99.90;;;;;;5096553;28;20458;-62
2023/02/15 00:24:32;;;;;;;34.13;13.63;;;5.40;99.90;;;;;;5096592;28;20446;-61
2023/02/15 00:27:02;;;;;;;25.30;11.80;;;5.40;99.90;;;;;;5096158;28;20442;-65
2023/02/15 00:29:30;;;;;;;23.10;12.30;;;5.30;99.90;;;;;;5097050;28;20434;-59
2023/02/15 00:31:57;;;;;;;26.50;12.50;;;5.40;99.90;;;;;;5097035;28;20472;-59
2023/02/15 00:34:25;;;;;;;25.53;14.20;;;5.30;99.90;;;;;;5096490;28;20462;-57
2023/02/15 00:36:52;;;;;;;26.80;14.07;;;5.30;99.90;;;;;;5096438;28;20443;-65
2023/02/15 00:39:19;;;;;;;30.73;13.03;;;5.30;99.90;;;;;;5095687;28;20461;-56
2023/02/15 00:41:48;;;;;;;24.17;12.83;;;5.30;99.90;;;;;;5096699;28;20415;-61
2023/02/15 00:44:15;;;;;;;29.70;13.83;;;5.30;99.90;;;;;;5096657;28;20473;-62
2023/02/15 00:46:44;;;;;;;29.93;13.90;;;5.30;99.90;;;;;;5096722;28;20422;-54
2023/02/15 00:49:11;;;;;;;27.67;12.40;;;5.30;99.90;;;;;;5097259;28;20458;-64
2023/02/15 00:51:40;;;;;;;23.60;12.60;;;5.40;99.90;;;;;;5097842;28;20466;-56
2023/02/15 00:54:07;;;;;;;32.43;14.43;;;5.30;99.90;;;;;;5097617;28;20462;-63
2023/02/15 00:56:34;;;;;;;27.00;14.70;;;5.30;99.90;;;;;;5096792;28;20484;-65
2023/02/15 00:59:01;;;;;;;30.30;12.90;;;5.30;99.90;;;;;;5097996;28;20476;-53
2023/02/15 01:01:27;;;;;;;30.67;14.07;;;5.20;99.90;;;;;;5097964;28;20426;-54
2023/02/15 01:03:58;;;;;;;25.63;15.00;;;5.20;99.90;;;;;;5097904;28;20476;-55
2023/02/15 01:06:25;;;;;;;25.87;13.50;;;5.20;99.90;;;;;;5097941;28;20419;-60
2023/02/15 01:08:52;;;;;;;35.30;15.27;;;5.20;99.90;;;;;;5097602;28;20467;-60
2023/02/15 01:11:22;;;;;;;26.90;13.50;;;5.20;99.90;;;;;;5097781;28;20459;-58
2023/02/15 01:13:50;;;;;;;23.80;13.20;;;5.20;99.90;;;;;;5097902;28;20469;-50
2023/02/15 01:16:17;;;;;;;30.13;14.57;;;5.20;99.90;;;;;;5097774;28;20411;-50
2023/02/15 01:18:44;;;;;;;23.70;14.23;;;5.10;99.90;;;;;;5097404;28;20555;-54
2023/02/15 01:21:15;;;;;;;36.77;15.17;;;5.20;99.90;;;;;;5098047;28;20439;-54
2023/02/15 01:23:42;;;;;;;35.90;15.50;;;5.10;99.90;;;;;;5097855;28;20428;-51
2023/02/15 01:26:10;;;;;;;34.50;14.70;;;5.10;99.90;;;;;;5097953;28;20449;-58
2023/02/15 01:28:37;;;;;;;34.40;13.90;;;5.10;99.90;;;;;;5097567;28;20456;-55
2023/02/15 01:31:08;;;;;;;25.17;13.30;;;5.00;99.90;;;;;;5097523;28;20512;-55
2023/02/15 01:33:36;;;;;;;31.27;14.63;;;5.00;99.90;;;;;;5097567;28;20449;-55
2023/02/15 01:36:04;;;;;;;30.03;13.47;;;5.00;99.90;;;;;;5097377;28;20446;-53
2023/02/15 01:38:35;;;;;;;37.37;13.60;;;5.00;99.90;;;;;;5097258;28;20449;-54
2023/02/15 01:43:44;;;;;;;36.90;14.80;;;5.00;99.90;;;;;;5095897;28;20460;-58
2023/02/15 01:46:13;;;;;;;30.60;14.40;;;4.90;99.90;;;;;;5096239;28;20446;-62
2023/02/15 01:48:44;;;;;;;28.70;13.70;;;5.00;99.90;;;;;;5096122;28;20440;-59
2023/02/15 01:51:13;;;;;;;28.57;12.53;;;4.90;99.90;;;;;;5096344;28;20458;-50
2023/02/15 01:53:46;;;;;;;34.80;12.97;;;4.90;99.90;;;;;;5096135;28;20477;-56
2023/02/15 01:56:20;;;;;;;33.50;13.40;;;4.80;99.90;;;;;;5095606;28;20423;-60
2023/02/15 01:58:49;;;;;;;28.10;15.20;;;4.80;99.90;;;;;;5096064;28;20474;-58
2023/02/15 02:01:16;;;;;;;23.33;13.60;;;4.80;99.90;;;;;;5096106;28;20455;-58
2023/02/15 02:03:54;;;;;;;30.27;13.27;;;4.80;99.90;;;;;;5095793;28;20458;-56
2023/02/15 02:06:21;;;;;;;33.93;16.13;;;4.90;99.90;;;;;;5095709;28;20457;-59
2023/02/15 02:08:53;;;;;;;34.20;16.77;;;4.70;99.90;;;;;;5096054;28;20461;-57
2023/02/15 02:11:20;;;;;;;31.83;13.60;;;4.70;99.90;;;;;;5100018;28;20485;-58
2023/02/15 02:13:48;;;;;;;30.30;13.67;;;4.70;99.90;;;;;;5099854;28;20437;-63
2023/02/15 02:16:22;;;;;;;28.47;14.73;;;4.70;99.90;;;;;;5099462;28;20462;-58
2023/02/15 02:19:05;;;;;;;30.87;15.60;;;4.80;99.90;;;;;;5100200;28;20405;-56
2023/02/15 02:22:02;;;;;;;35.70;15.80;;;4.60;99.90;;;;;;5098860;28;20489;-57
2023/02/15 02:25:00;;;;;;;27.60;12.53;;;4.60;99.90;;;;;;5098881;28;20429;-58
2023/02/15 02:27:33;;;;;;;37.40;17.27;;;4.60;99.90;;;;;;5099085;28;20466;-56
2023/02/15 02:30:36;;;;;;;38.27;15.03;;;4.50;99.90;;;;;;5098841;28;20479;-59
2023/02/15 02:33:35;;;;;;;26.30;13.20;;;4.40;99.90;;;;;;5098762;28;20486;-59
2023/02/15 02:36:09;;;;;;;31.60;13.20;;;4.30;99.90;;;;;;5095321;28;20517;-57
2023/02/15 02:38:49;;;;;;;43.80;18.20;;;4.30;99.90;;;;;;5099022;28;20486;-61
2023/02/15 02:41:23;;;;;;;35.73;16.40;;;4.30;99.90;;;;;;5099628;28;20450;-53
2023/02/15 02:44:02;;;;;;;33.43;14.40;;;4.30;99.90;;;;;;5099704;28;20461;-59
2023/02/15 02:46:38;;;;;;;41.23;20.50;;;4.20;99.90;;;;;;5099978;28;20430;-50
2023/02/15 02:49:06;;;;;;;38.47;18.07;;;4.20;99.90;;;;;;5099494;28;20462;-55
2023/02/15 02:51:33;;;;;;;37.70;17.13;;;4.10;99.90;;;;;;5099023;28;20478;-59
2023/02/15 02:54:05;;;;;;;36.53;17.10;;;4.10;99.90;;;;;;5099723;28;20463;-54
2023/02/15 02:56:37;;;;;;;46.70;18.33;;;4.10;99.90;;;;;;5098565;28;20453;-57
2023/02/15 02:59:08;;;;;;;33.30;17.30;;;4.10;99.90;;;;;;5098807;28;20465;-59
2023/02/15 03:01:41;;;;;;;45.50;20.80;;;4.10;99.90;;;;;;5099470;28;20465;-52
2023/02/15 03:04:13;;;;;;;39.83;18.17;;;4.20;99.90;;;;;;5099349;28;20442;-59
2023/02/15 03:06:46;;;;;;;35.63;14.97;;;4.20;99.90;;;;;;5099191;28;20441;-61
2023/02/15 03:09:19;;;;;;;47.73;19.30;;;4.20;99.90;;;;;;5098637;28;20482;-58
2023/02/15 03:11:49;;;;;;;37.07;19.90;;;4.20;99.90;;;;;;5098085;28;20485;-58
2023/02/15 03:14:19;;;;;;;36.60;15.03;;;4.20;99.90;;;;;;5098379;28;20441;-58
2023/02/15 03:16:47;;;;;;;38.93;17.70;;;4.00;99.90;;;;;;5098610;28;20462;-58
2023/02/15 03:19:21;;;;;;;40.77;17.80;;;4.20;99.90;;;;;;5098846;28;20445;-54
2023/02/15 03:21:57;;;;;;;30.03;16.63;;;4.20;99.90;;;;;;5098854;28;20443;-57
2023/02/15 03:24:29;;;;;;;36.97;18.50;;;4.10;99.90;;;;;;5098264;28;20407;-52
2023/02/15 03:26:57;;;;;;;42.27;15.67;;;4.00;99.90;;;;;;5098123;28;20453;-58
2023/02/15 03:29:28;;;;;;;43.63;16.40;;;4.00;99.90;;;;;;5098234;28;20481;-57
2023/02/15 03:32:00;;;;;;;41.50;17.53;;;3.90;99.90;;;;;;5098524;28;20447;-59
2023/02/15 03:34:29;;;;;;;59.23;20.97;;;3.90;99.90;;;;;;5098255;28;20441;-55
2023/02/15 03:37:01;;;;;;;41.77;16.77;;;3.80;99.90;;;;;;5097773;28;20435;-57
2023/02/15 03:39:34;;;;;;;40.00;16.87;;;3.80;99.90;;;;;;5097835;28;20486;-61
2023/02/15 03:42:10;;;;;;;39.23;18.47;;;3.70;99.90;;;;;;5097017;28;20415;-56
2023/02/15 03:44:46;;;;;;;30.80;16.30;;;3.70;99.90;;;;;;5097624;28;20482;-55
2023/02/15 03:47:16;;;;;;;38.27;13.90;;;3.70;99.90;;;;;;5097464;28;20461;-46
2023/02/15 03:49:49;;;;;;;49.70;19.30;;;3.60;99.90;;;;;;5097543;28;20458;-60
2023/02/15 03:52:16;;;;;;;35.27;16.00;;;3.60;99.90;;;;;;5097795;28;20454;-54
2023/02/15 03:54:45;;;;;;;35.63;15.90;;;3.60;99.90;;;;;;5097884;28;20423;-55
2023/02/15 04:03:10;;;;;;;40.30;15.80;;;3.40;99.90;;;;;;5097473;28;20429;-59
2023/02/15 04:05:39;;;;;;;33.00;13.47;;;3.40;99.90;;;;;;5096884;28;20443;-57
2023/02/15 04:08:06;;;;;;;36.37;14.67;;;3.20;99.90;;;;;;5097408;28;20497;-58
2023/02/15 04:13:16;;;;;;;36.57;14.53;;;3.20;99.90;;;;;;5090152;28;20496;-63
2023/02/15 04:26:45;;;;;;;39.77;15.50;;;3.00;99.90;;;;;;5097759;28;20455;-58
2023/02/15 04:29:12;;;;;;;35.07;14.30;;;3.00;99.90;;;;;;5097483;28;20526;-57
2023/02/15 04:31:42;;;;;;;32.37;14.87;;;3.00;99.90;;;;;;5096915;28;20423;-54
2023/02/15 04:34:16;;;;;;;31.43;13.07;;;3.00;99.90;;;;;;5097842;28;20454;-55
2023/02/15 04:36:44;;;;;;;45.80;17.83;;;2.90;99.90;;;;;;5097771;28;20431;-57
2023/02/15 04:39:14;;;;;;;32.77;15.30;;;2.90;99.90;;;;;;5097017;28;20473;-59
2023/02/15 04:41:42;;;;;;;32.70;13.77;;;2.80;99.90;;;;;;5097450;28;20466;-52
2023/02/15 04:44:09;;;;;;;37.63;15.50;;;2.80;99.90;;;;;;5097630;28;20461;-52
2023/02/15 04:46:35;;;;;;;25.63;16.07;;;3.40;99.90;;;;;;5097276;28;20473;-56
2023/02/15 04:49:02;;;;;;;32.33;13.83;;;2.70;99.90;;;;;;5097568;28;20442;-56
2023/02/15 04:51:29;;;;;;;33.27;16.00;;;2.60;99.90;;;;;;5097595;28;20553;-57
2023/02/15 04:53:57;;;;;;;41.37;15.40;;;2.60;99.90;;;;;;5097617;28;20478;-53
2023/02/15 04:56:24;;;;;;;38.07;16.80;;;2.60;99.90;;;;;;5097402;28;20469;-57
2023/02/15 04:58:51;;;;;;;35.13;16.43;;;2.60;99.90;;;;;;5097047;28;20481;-57
2023/02/15 05:01:18;;;;;;;37.17;17.30;;;2.50;99.90;;;;;;5097686;28;20430;-59
2023/02/15 05:03:48;;;;;;;33.83;15.23;;;2.50;99.90;;;;;;5097792;28;20446;-57
2023/02/15 05:06:15;;;;;;;31.47;14.37;;;2.50;99.90;;;;;;5097701;28;20450;-56
2023/02/15 05:08:42;;;;;;;39.63;13.60;;;2.40;99.90;;;;;;5097125;28;20470;-55
2023/02/15 05:11:10;;;;;;;29.33;15.67;;;2.40;99.90;;;;;;5097081;28;20438;-54
2023/02/15 05:13:37;;;;;;;32.07;14.30;;;2.40;99.90;;;;;;5096712;28;20514;-55
2023/02/15 05:16:04;;;;;;;32.37;14.50;;;2.50;99.90;;;;;;5097391;28;20442;-59
2023/02/15 05:18:34;;;;;;;33.03;15.50;;;2.50;99.90;;;;;;5096985;28;20437;-53
2023/02/15 05:21:00;;;;;;;32.30;14.00;;;2.40;99.90;;;;;;5096665;28;20470;-53
2023/02/15 05:23:27;;;;;;;22.60;12.57;;;2.40;99.90;;;;;;5096631;28;20462;-58
2023/02/15 05:28:51;;;;;;;30.20;13.50;;;2.30;99.90;;;;;;5056006;28;20438;-54
2023/02/15 05:31:27;;;;;;;33.80;12.17;;;2.30;99.90;;;;;;5086499;28;20445;-57
2023/02/15 05:33:54;;;;;;;33.67;14.23;;;2.30;99.90;;;;;;5096747;28;20453;-58
2023/02/15 05:36:22;;;;;;;34.77;15.97;;;2.30;99.90;;;;;;5096890;28;20478;-60
2023/02/15 05:38:52;;;;;;;22.93;14.40;;;2.20;99.90;;;;;;5096966;28;20422;-56
2023/02/15 05:41:19;;;;;;;30.93;17.37;;;2.40;99.90;;;;;;5096908;28;20419;-52
2023/02/15 05:43:46;;;;;;;18.87;12.83;;;2.40;99.90;;;;;;5099026;28;20433;-62
2023/02/15 05:46:17;;;;;;;25.60;12.60;;;2.40;99.90;;;;;;5100774;28;20454;-59
2023/02/15 05:48:44;;;;;;;27.03;12.40;;;2.40;99.90;;;;;;5100744;28;20460;-57
2023/02/15 05:51:14;;;;;;;43.97;17.47;;;2.40;99.90;;;;;;5100830;28;20438;-57
2023/02/15 05:53:41;;;;;;;30.13;14.97;;;3.00;99.90;;;;;;5100799;28;20497;-52
2023/02/15 05:56:11;;;;;;;35.33;15.50;;;2.30;99.90;;;;;;5100955;28;20442;-56
2023/02/15 05:58:40;;;;;;;41.23;14.07;;;2.20;99.90;;;;;;5100952;28;20463;-52
2023/02/15 06:01:11;;;;;;;35.97;14.57;;;2.30;99.90;;;;;;5100939;28;20466;-62
2023/02/15 06:03:39;;;;;;;41.30;16.07;;;2.10;99.90;;;;;;5100841;28;20449;-53
2023/02/15 06:06:07;;;;;;;37.90;16.57;;;2.00;99.90;;;;;;5100357;28;20403;-60
2023/02/15 06:08:37;;;;;;;21.63;10.57;;;2.10;99.90;;;;;;5100877;28;20431;-60
2023/02/15 06:11:05;;;;;;;26.27;14.60;;;2.00;99.90;;;;;;5101232;28;20423;-51
2023/02/15 06:13:33;;;;;;;29.13;15.17;;;2.00;99.90;;;;;;5100689;28;20482;-59
2023/02/15 06:16:00;;;;;;;41.97;16.97;;;2.00;99.90;;;;;;5100704;28;20453;-58
2023/02/15 06:18:27;;;;;;;27.70;13.80;;;1.90;99.90;;;;;;5100162;28;20473;-55
2023/02/15 06:20:55;;;;;;;24.77;12.43;;;1.90;99.90;;;;;;5100073;28;20458;-55
2023/02/15 06:23:22;;;;;;;30.20;14.67;;;1.90;99.90;;;;;;5100389;28;20443;-53
2023/02/15 06:25:49;;;;;;;29.60;14.27;;;1.90;99.90;;;;;;5100690;28;20426;-52
2023/02/15 06:28:20;;;;;;;27.30;14.00;;;2.00;99.90;;;;;;5100669;28;20863;-55
2023/02/15 06:30:47;;;;;;;29.40;15.23;;;1.90;99.90;;;;;;5100860;28;20521;-51
2023/02/15 06:33:14;;;;;;;39.03;14.73;;;1.80;99.90;;;;;;5100626;28;20489;-45
2023/02/15 06:35:41;;;;;;;31.60;13.80;;;1.80;99.90;;;;;;5100632;28;20434;-47
2023/02/15 06:38:13;;;;;;;32.50;14.70;;;2.00;99.90;;;;;;5100000;28;20588;-58
2023/02/15 06:40:42;;;;;;;31.60;14.00;;;2.00;99.90;;;;;;5098757;28;20426;-51
2023/02/15 06:43:09;;;;;;;37.53;16.00;;;1.90;99.90;;;;;;5098013;28;20470;-59
2023/02/15 06:45:36;;;;;;;27.70;14.10;;;1.80;99.90;;;;;;5098044;28;20422;-60
2023/02/15 06:48:02;;;;;;;31.13;15.57;;;1.90;99.90;;;;;;5098661;28;20463;-60
2023/02/15 06:50:29;;;;;;;50.77;16.87;;;1.90;99.90;;;;;;5098417;28;20453;-62
2023/02/15 06:52:57;;;;;;;32.77;16.10;;;2.00;99.90;;;;;;5098452;28;20492;-61
2023/02/15 06:55:26;;;;;;;31.70;13.80;;;1.80;99.90;;;;;;5098219;28;20462;-58
2023/02/15 06:57:53;;;;;;;41.90;16.83;;;1.90;99.90;;;;;;5098953;28;20469;-63
2023/02/15 07:00:21;;;;;;;44.53;17.20;;;1.90;99.90;;;;;;5098772;28;20486;-61
2023/02/15 07:02:48;;;;;;;31.30;14.23;;;1.90;99.90;;;;;;5099052;28;20472;-62
2023/02/15 07:05:18;;;;;;;51.00;14.90;;;1.80;99.90;;;;;;5098619;28;20466;-63
2023/02/15 07:07:45;;;;;;;25.13;13.67;;;0.90;99.90;;;;;;5098488;28;20514;-62
2023/02/15 07:10:15;;;;;;;27.07;14.73;;;1.80;99.90;;;;;;5098385;28;20461;-64
2023/02/15 07:12:42;;;;;;;44.70;17.83;;;1.70;99.90;;;;;;5097646;28;20497;-58
2023/02/15 07:15:09;;;;;;;26.43;14.23;;;1.70;99.90;;;;;;5084927;28;20511;-59
2023/02/15 07:17:36;;;;;;;42.33;15.80;;;1.70;99.90;;;;;;5097462;28;20477;-60
2023/02/15 07:20:07;;;;;;;27.10;12.87;;;2.00;99.90;;;;;;5097617;28;20490;-62
2023/02/15 07:22:35;;;;;;;28.63;14.63;;;1.80;99.90;;;;;;5096728;28;20446;-62
2023/02/15 07:25:06;;;;;;;34.73;16.13;;;1.70;99.90;;;;;;5096584;28;20439;-60
2023/02/15 07:27:33;;;;;;;41.13;15.17;;;1.80;99.90;;;;;;5097538;28;20477;-63
2023/02/15 07:30:02;;;;;;;41.23;15.57;;;1.90;99.90;;;;;;5098064;28;20418;-61
2023/02/15 07:32:30;;;;;;;103.80;16.10;;;1.90;99.90;;;;;;5097661;28;20442;-62
2023/02/15 07:34:57;;;;;;;37.80;18.53;;;1.90;99.90;;;;;;5097681;28;20840;-57
2023/02/15 07:37:24;;;;;;;29.57;14.80;;;2.10;99.90;;;;;;5097899;28;20453;-64
2023/02/15 07:39:51;;;;;;;45.80;13.00;;;1.90;99.90;;;;;;5097275;28;20458;-64
2023/02/15 07:42:19;;;;;;;29.80;15.53;;;2.00;99.90;;;;;;5097585;28;20422;-62
2023/02/15 07:44:46;;;;;;;35.10;16.20;;;2.10;99.90;;;;;;5097524;28;20462;-63
2023/02/15 07:47:14;;;;;;;29.80;14.20;;;2.10;99.90;;;;;;5097485;28;20430;-62
2023/02/15 07:49:42;;;;;;;36.27;14.30;;;2.10;99.90;;;;;;5097535;28;20418;-61
2023/02/15 07:52:11;;;;;;;28.20;13.57;;;2.20;99.90;;;;;;5097518;28;20427;-61
2023/02/15 07:54:37;;;;;;;31.47;16.13;;;2.20;99.90;;;;;;5097434;28;20502;-62
2023/02/15 07:57:06;;;;;;;32.90;13.63;;;2.10;99.90;;;;;;5097757;28;20449;-59
2023/02/15 07:59:36;;;;;;;29.10;13.47;;;2.20;99.90;;;;;;5096952;28;20455;-64
2023/02/15 08:02:09;;;;;;;36.63;17.13;;;1.70;99.90;;;;;;5097178;28;20494;-62
2023/02/15 08:04:39;;;;;;;29.77;15.30;;;2.20;99.90;;;;;;5096928;28;20430;-63
2023/02/15 08:07:06;;;;;;;33.93;14.30;;;2.20;99.90;;;;;;5095520;28;20472;-63
2023/02/15 08:09:33;;;;;;;38.27;13.10;;;2.20;99.90;;;;;;5096478;28;20466;-58
2023/02/15 08:12:00;;;;;;;33.70;12.80;;;2.20;99.90;;;;;;5097001;28;20429;-64
2023/02/15 08:14:28;;;;;;;29.10;13.43;;;2.30;99.90;;;;;;5097578;28;20450;-62
2023/02/15 08:16:56;;;;;;;30.57;13.87;;;2.30;99.90;;;;;;5096338;28;20434;-61
2023/02/15 08:19:25;;;;;;;33.53;13.17;;;2.30;99.90;;;;;;5096206;28;20466;-62
2023/02/15 08:21:56;;;;;;;27.37;12.97;;;2.20;99.90;;;;;;5095628;28;20437;-61
2023/02/15 08:24:25;;;;;;;27.67;12.57;;;2.30;99.90;;;;;;5096574;28;20534;-61
2023/02/15 08:26:52;;;;;;;54.73;22.73;;;2.20;99.90;;;;;;5096458;28;20457;-62
2023/02/15 08:29:22;;;;;;;26.33;14.50;;;2.00;99.90;;;;;;5097687;28;20454;-58
2023/02/15 08:31:53;;;;;;;35.97;15.97;;;2.30;99.90;;;;;;5097979;28;20430;-58
2023/02/15 08:34:23;;;;;;;31.60;13.40;;;2.50;99.90;;;;;;5097898;28;20474;-63
2023/02/15 08:36:50;;;;;;;31.23;12.63;;;2.30;99.90;;;;;;5098003;28;20438;-63
2023/02/15 08:39:18;;;;;;;29.37;12.27;;;2.40;99.90;;;;;;5098156;28;20451;-63
2023/02/15 08:41:47;;;;;;;35.33;13.60;;;2.40;99.90;;;;;;5098134;28;20462;-59
2023/02/15 08:44:16;;;;;;;29.43;12.00;;;2.50;99.90;;;;;;5098005;28;20427;-59
2023/02/15 08:46:47;;;;;;;38.27;14.13;;;2.50;99.90;;;;;;5097286;28;20467;-62
2023/02/15 08:49:17;;;;;;;25.30;12.40;;;2.70;99.90;;;;;;5097010;28;20426;-60
2023/02/15 08:51:44;;;;;;;32.93;16.60;;;2.50;99.90;;;;;;5095809;28;20458;-58
2023/02/15 08:54:13;;;;;;;22.07;11.20;;;2.50;99.90;;;;;;5096051;28;20552;-64
2023/02/15 08:56:43;;;;;;;40.77;19.10;;;2.70;99.90;;;;;;5096400;28;20433;-62
2023/02/15 08:59:14;;;;;;;25.47;12.90;;;2.80;99.90;;;;;;5095677;28;20449;-62
2023/02/15 09:01:41;;;;;;;23.20;14.67;;;2.90;99.90;;;;;;5096552;28;20423;-63
2023/02/15 09:04:09;;;;;;;29.67;12.30;;;2.90;99.90;;;;;;5096895;28;20434;-63
2023/02/15 09:06:37;;;;;;;23.10;11.80;;;3.00;99.90;;;;;;5096796;28;20442;-57
2023/02/15 09:09:04;;;;;;;22.80;10.77;;;2.90;99.90;;;;;;5096303;28;20473;-59
2023/02/15 09:11:36;;;;;;;35.17;14.13;;;3.00;99.90;;;;;;5096466;28;20438;-58
2023/02/15 09:14:07;;;;;;;28.50;13.23;;;3.00;99.90;;;;;;5096504;28;20490;-64
2023/02/15 09:16:35;;;;;;;29.30;11.60;;;3.10;99.90;;;;;;5096701;28;20486;-60
2023/02/15 09:19:04;;;;;;;22.83;11.90;;;3.20;99.90;;;;;;5099267;28;20450;-63
2023/02/15 09:21:32;;;;;;;26.53;11.77;;;3.20;99.90;;;;;;5100147;28;20414;-61
2023/02/15 09:24:01;;;;;;;26.43;13.60;;;3.20;99.90;;;;;;5099712;28;20469;-64
2023/02/15 09:26:30;;;;;;;28.03;12.37;;;3.30;99.90;;;;;;5099580;28;20442;-60
2023/02/15 09:28:58;;;;;;;19.90;11.30;;;3.30;99.90;;;;;;5099998;28;20422;-61
2023/02/15 09:31:29;;;;;;;22.17;10.70;;;3.30;99.90;;;;;;5099405;28;20462;-64
2023/02/15 09:33:56;;;;;;;23.60;11.87;;;3.40;99.90;;;;;;5099487;28;20450;-64
2023/02/15 09:36:25;;;;;;;22.50;11.70;;;3.50;99.90;;;;;;5094832;28;20473;-64
2023/02/15 09:38:57;;;;;;;26.03;12.40;;;3.70;99.90;;;;;;5098908;28;20453;-63
2023/02/15 09:41:47;;;;;;;23.80;11.43;;;3.70;99.90;;;;;;5098678;28;20418;-63
2023/02/15 09:44:21;;;;;;;25.60;11.00;;;3.60;99.90;;;;;;5099027;28;20430;-61
2023/02/15 09:47:07;;;;;;;30.50;12.87;;;3.60;99.90;;;;;;5099531;28;20414;-60
2023/02/15 09:49:43;;;;;;;50.57;12.70;;;3.60;99.90;;;;;;5098686;28;20415;-63
2023/02/15 09:52:26;;;;;;;22.30;10.20;;;3.60;99.90;;;;;;5099007;28;20426;-63
2023/02/15 09:55:06;;;;;;;31.63;11.70;;;3.60;99.90;;;;;;5098916;28;20469;-61
2023/02/15 09:57:42;;;;;;;24.37;13.20;;;3.80;99.90;;;;;;5098988;28;20450;-64
2023/02/15 10:00:15;;;;;;;26.73;12.80;;;3.90;99.90;;;;;;5099472;28;20433;-63
2023/02/15 10:03:02;;;;;;;30.20;13.23;;;4.20;99.90;;;;;;5098669;28;20441;-62
2023/02/15 10:05:41;;;;;;;35.17;11.90;;;4.20;99.90;;;;;;5098784;28;20485;-61
2023/02/15 10:08:38;;;;;;;22.80;11.17;;;4.20;99.90;;;;;;5100107;28;20446;-66
2023/02/15 10:14:11;;;;;;;21.97;11.63;;;4.20;99.90;;;;;;5099566;28;20485;-64
2023/02/15 10:16:49;;;;;;;32.60;12.47;;;4.40;99.90;;;;;;5099146;28;20461;-62
2023/02/15 10:19:24;;;;;;;25.93;11.03;;;4.40;99.90;;;;;;5098640;28;20431;-62
2023/02/15 10:22:04;;;;;;;29.90;13.37;;;4.50;99.90;;;;;;5098673;28;20497;-62
2023/02/15 10:24:48;;;;;;;19.50;11.07;;;4.70;99.90;;;;;;5099343;28;20430;-64
2023/02/15 10:27:20;;;;;;;23.70;13.90;;;4.70;99.90;;;;;;5098735;28;20459;-59
2023/02/15 10:29:58;;;;;;;23.70;12.70;;;4.90;99.90;;;;;;5098600;28;20426;-63
2023/02/15 10:32:29;;;;;;;27.57;14.97;;;4.90;99.90;;;;;;5098500;28;20462;-63
2023/02/15 10:35:05;;;;;;;35.83;17.23;;;5.00;99.90;;;;;;5098566;28;20462;-62
2023/02/15 10:38:03;;;;;;;27.67;14.50;;;5.00;99.90;;;;;;5097950;28;20458;-59
2023/02/15 10:40:37;;;;;;;43.63;15.27;;;5.20;99.90;;;;;;5098201;28;20453;-61
2023/02/15 10:43:25;;;;;;;28.13;12.90;;;5.30;99.90;;;;;;5097928;28;20473;-62
2023/02/15 10:46:00;;;;;;;28.40;15.00;;;5.40;99.90;;;;;;5098452;28;20426;-60
2023/02/15 10:48:58;;;;;;;32.00;13.70;;;5.70;99.90;;;;;;5098173;28;20429;-61
2023/02/15 10:51:40;;;;;;;24.03;13.07;;;6.00;99.90;;;;;;5098676;28;20482;-59
2023/02/15 10:54:17;;;;;;;26.40;12.70;;;6.30;99.90;;;;;;5098044;28;20447;-56
2023/02/15 10:56:53;;;;;;;26.07;13.70;;;6.60;99.90;;;;;;5098107;28;20418;-61
2023/02/15 10:59:43;;;;;;;31.20;14.77;;;6.80;99.90;;;;;;5098321;28;20454;-62
2023/02/15 11:02:22;;;;;;;20.77;11.73;;;7.30;99.90;;;;;;5098297;28;20529;-62
2023/02/15 11:05:08;;;;;;;28.10;13.83;;;7.60;99.90;;;;;;5098057;28;20425;-63
2023/02/15 11:07:41;;;;;;;25.77;13.23;;;7.50;99.90;;;;;;5098087;28;20407;-64
2023/02/15 11:10:24;;;;;;;31.57;13.70;;;7.10;99.90;;;;;;5098245;28;20415;-60
2023/02/15 11:12:51;;;;;;;28.03;12.90;;;6.70;99.90;;;;;;5097992;28;20455;-63
2023/02/15 11:15:25;;;;;;;31.13;14.17;;;6.60;99.90;;;;;;5097665;28;20502;-57
2023/02/15 11:17:58;;;;;;;27.90;12.47;;;6.70;99.90;;;;;;5096947;28;20497;-62
2023/02/15 11:20:30;;;;;;;21.63;11.47;;;7.20;99.90;;;;;;5098235;28;20427;-62
2023/02/15 11:22:59;;;;;;;25.13;12.30;;;7.80;99.90;;;;;;5098116;28;20462;-62
2023/02/15 11:25:31;;;;;;;31.73;15.13;;;8.50;99.90;;;;;;5097708;28;20477;-63
2023/02/15 11:27:59;;;;;;;31.20;13.73;;;8.80;99.90;;;;;;5083464;28;20558;-63
2023/02/15 11:30:34;;;;;;;20.77;11.87;;;9.10;99.90;;;;;;5076234;28;20470;-64
2023/02/15 11:33:03;;;;;;;28.93;13.87;;;9.10;99.90;;;;;;5076125;28;20426;-62
2023/02/15 11:35:33;;;;;;;26.10;13.33;;;9.10;99.90;;;;;;5078731;28;21027;-63
2023/02/15 11:38:07;;;;;;;27.60;14.17;;;8.80;99.90;;;;;;5085309;28;20441;-60
2023/02/15 11:40:36;;;;;;;30.30;13.70;;;8.60;99.90;;;;;;5086478;28;20510;-61
2023/02/15 11:43:13;;;;;;;31.00;14.60;;;8.30;99.90;;;;;;5097480;28;20474;-64
2023/02/15 11:45:43;;;;;;;26.87;12.67;;;8.10;99.90;;;;;;5097557;28;20466;-61
2023/02/15 11:48:13;;;;;;;30.10;14.80;;;8.00;99.90;;;;;;5097774;28;20490;-62
2023/02/15 11:50:41;;;;;;;22.80;13.23;;;7.80;99.90;;;;;;5097423;28;20462;-60
2023/02/15 11:53:14;;;;;;;33.20;13.10;;;7.70;99.90;;;;;;5097646;28;20473;-59
2023/02/15 11:55:43;;;;;;;23.27;11.97;;;7.60;99.90;;;;;;5097497;28;20486;-65
2023/02/15 11:58:29;;;;;;;21.90;12.30;;;7.60;99.90;;;;;;5097077;28;20482;-61
2023/02/15 12:01:01;;;;;;;28.97;12.90;;;7.50;99.90;;;;;;5097518;28;20454;-62
2023/02/15 12:03:44;;;;;;;24.33;11.60;;;7.40;99.90;;;;;;5097108;28;20421;-58
2023/02/15 12:06:19;;;;;;;21.90;11.23;;;7.30;99.90;;;;;;5096781;28;20422;-61
2023/02/15 12:08:54;;;;;;;32.80;14.30;;;7.40;99.90;;;;;;5096408;28;20421;-62
2023/02/15 12:11:27;;;;;;;25.20;13.37;;;7.40;99.90;;;;;;5096265;28;20411;-56
2023/02/15 12:13:59;;;;;;;24.03;12.20;;;7.50;99.90;;;;;;5095474;28;20463;-64
2023/02/15 12:16:27;;;;;;;30.07;13.47;;;7.40;99.90;;;;;;5096362;28;20438;-63
2023/02/15 12:18:57;;;;;;;30.70;13.97;;;7.50;99.90;;;;;;5096283;28;20438;-65
2023/02/15 12:21:29;;;;;;;27.17;13.37;;;7.60;99.90;;;;;;5096598;28;20462;-61
2023/02/15 12:24:01;;;;;;;27.77;13.63;;;7.60;99.90;;;;;;5096730;28;20461;-61
2023/02/15 12:26:30;;;;;;;30.93;16.13;;;7.60;99.90;;;;;;5097557;28;20414;-61
2023/02/15 12:29:02;;;;;;;25.20;12.33;;;7.60;99.90;;;;;;5097666;28;20453;-59
2023/02/15 12:31:34;;;;;;;20.60;11.73;;;7.70;99.90;;;;;;5097562;28;20419;-61
2023/02/15 12:34:10;;;;;;;23.17;13.10;;;7.80;99.90;;;;;;5096761;28;20491;-60
2023/02/15 12:36:46;;;;;;;30.00;14.07;;;7.90;99.90;;;;;;5096567;28;20444;-60
2023/02/15 12:39:25;;;;;;;24.87;13.00;;;8.00;99.90;;;;;;5096783;28;20460;-64
2023/02/15 12:42:01;;;;;;;33.27;14.03;;;8.10;99.90;;;;;;5096920;28;20476;-63
2023/02/15 12:44:30;;;;;;;25.83;14.00;;;8.10;99.90;;;;;;5096067;28;20528;-59
2023/02/15 12:47:04;;;;;;;30.40;13.17;;;8.20;99.90;;;;;;5096403;28;20485;-59
2023/02/15 12:49:32;;;;;;;25.10;12.47;;;8.30;99.90;;;;;;5096780;28;20524;-60
2023/02/15 12:52:01;;;;;;;29.33;12.33;;;8.40;99.90;;;;;;5095614;28;20477;-63
2023/02/15 12:54:36;;;;;;;25.07;11.83;;;8.50;99.90;;;;;;5095995;28;20498;-63
2023/02/15 12:57:24;;;;;;;25.23;11.23;;;8.50;99.90;;;;;;5096795;28;20458;-63
2023/02/15 12:59:53;;;;;;;27.47;13.70;;;8.60;99.90;;;;;;5096485;28;20453;-61
2023/02/15 13:02:27;;;;;;;22.30;12.33;;;8.70;99.90;;;;;;5096860;28;20490;-63
2023/02/15 13:04:56;;;;;;;25.27;12.57;;;8.80;99.90;;;;;;5097093;28;20445;-61
2023/02/15 13:07:25;;;;;;;23.27;14.53;;;8.90;99.90;;;;;;5096693;28;20523;-62
2023/02/15 13:09:54;;;;;;;27.43;12.90;;;9.00;99.90;;;;;;5097083;28;20442;-60
2023/02/15 13:12:26;;;;;;;25.20;12.63;;;9.00;99.90;;;;;;5096360;28;20454;-61
2023/02/15 13:14:55;;;;;;;29.70;14.60;;;9.10;99.90;;;;;;5096743;28;20464;-60
2023/02/15 13:17:29;;;;;;;26.33;13.10;;;9.10;99.90;;;;;;5096649;28;20509;-61
2023/02/15 13:19:58;;;;;;;25.97;13.07;;;9.30;99.90;;;;;;5095779;28;20442;-62
2023/02/15 13:22:29;;;;;;;22.50;11.60;;;9.40;99.90;;;;;;5096179;28;20469;-62
2023/02/15 13:24:59;;;;;;;23.63;12.37;;;9.50;99.90;;;;;;5096908;28;20465;-59